Time;durP1;ratioP1;P1;durP2;ratioP2;P2;SDS_P1;SDS_P2;PMS_P1;PMS_P2;Temp;Humidity;BMP_temperature;BMP_pressure;BME280_temperature;BME280_humidity;BME280_pressure;Samples;Min_cycle;Max_cycle;Signal;HPM_P1;HPM_P2
2022/04/14 00:00:55;;;;;;;18.65;11.65;;;;;;;;;;5116843;27;20069;-63
2022/04/14 00:03:21;;;;;;;16.42;10.73;;;;;;;;;;5130856;27;20046;-63
2022/04/14 00:05:47;;;;;;;20.67;11.48;;;;;;;;;;5123250;27;20039;-63
2022/04/14 00:08:13;;;;;;;19.65;11.93;;;;;;;;;;5116221;27;20091;-64
2022/04/14 00:10:40;;;;;;;21.90;12.57;;;;;;;;;;5102331;27;20050;-63
2022/04/14 00:13:06;;;;;;;17.00;11.23;;;;;;;;;;5128020;27;20562;-63
2022/04/14 00:15:32;;;;;;;17.20;10.68;;;;;;;;;;5104966;28;20035;-63
2022/04/14 00:17:58;;;;;;;15.30;11.25;;;;;;;;;;5108075;27;20043;-63
2022/04/14 00:20:25;;;;;;;21.98;11.80;;;;;;;;;;5122414;27;20057;-64
2022/04/14 00:22:51;;;;;;;19.90;11.23;;;;;;;;;;5125953;27;20039;-63
2022/04/14 00:25:17;;;;;;;19.42;11.50;;;;;;;;;;5098634;27;20156;-63
2022/04/14 00:27:43;;;;;;;23.20;12.02;;;;;;;;;;5125737;27;20126;-63
2022/04/14 00:30:10;;;;;;;18.52;11.68;;;;;;;;;;5125306;27;20043;-64
2022/04/14 00:32:36;;;;;;;23.20;13.38;;;;;;;;;;5106695;27;20493;-63
2022/04/14 00:35:03;;;;;;;18.23;11.65;;;;;;;;;;5121231;27;20054;-64
2022/04/14 00:37:29;;;;;;;25.10;12.50;;;;;;;;;;5126464;27;20054;-63
2022/04/14 00:39:55;;;;;;;21.02;11.98;;;;;;;;;;5122176;27;20051;-63
2022/04/14 00:42:21;;;;;;;21.45;12.07;;;;;;;;;;5121547;27;20115;-63
2022/04/14 00:44:47;;;;;;;18.75;12.43;;;;;;;;;;5128122;27;20499;-63
2022/04/14 00:47:14;;;;;;;17.65;11.57;;;;;;;;;;5130826;27;20071;-63
2022/04/14 00:49:41;;;;;;;18.55;10.52;;;;;;;;;;5131186;27;20043;-63
2022/04/14 00:52:07;;;;;;;15.68;10.60;;;;;;;;;;5098609;28;20061;-64
2022/04/14 00:54:34;;;;;;;15.68;10.48;;;;;;;;;;5108205;27;20047;-64
2022/04/14 00:57:01;;;;;;;15.40;9.23;;;;;;;;;;5114685;27;20047;-63
2022/04/14 00:59:27;;;;;;;13.50;9.02;;;;;;;;;;5097400;28;20058;-64
2022/04/14 01:01:54;;;;;;;13.95;6.18;;;;;;;;;;5119233;27;20452;-63
2022/04/14 01:04:20;;;;;;;40.47;7.45;;;;;;;;;;5124679;28;20044;-64
2022/04/14 01:06:46;;;;;;;16.48;9.73;;;;;;;;;;5116247;28;20043;-63
2022/04/14 01:09:19;;;;;;;74.68;10.63;;;;;;;;;;5096805;28;20051;-63
2022/04/14 01:11:46;;;;;;;13.02;8.15;;;;;;;;;;5096722;28;20483;-64
2022/04/14 01:14:20;;;;;;;70.57;9.55;;;;;;;;;;5106427;28;20467;-63
2022/04/14 01:16:46;;;;;;;42.50;8.38;;;;;;;;;;5131683;28;20035;-64
2022/04/14 01:19:12;;;;;;;22.80;10.02;;;;;;;;;;5130197;28;20099;-63
2022/04/14 01:21:41;;;;;;;14.55;10.18;;;;;;;;;;5131233;28;20436;-63
2022/04/14 01:24:09;;;;;;;17.70;11.98;;;;;;;;;;5110380;28;20074;-63
2022/04/14 01:26:37;;;;;;;19.35;12.65;;;;;;;;;;5122950;28;20151;-63
2022/04/14 01:29:04;;;;;;;19.58;12.68;;;;;;;;;;5119937;28;20410;-64
2022/04/14 01:31:30;;;;;;;19.42;11.82;;;;;;;;;;5118786;28;20071;-64
2022/04/14 01:33:56;;;;;;;21.13;14.00;;;;;;;;;;5103819;28;20470;-63
2022/04/14 01:36:22;;;;;;;24.30;15.95;;;;;;;;;;5119114;28;20084;-63
2022/04/14 01:38:49;;;;;;;30.15;17.00;;;;;;;;;;5096336;28;20047;-64
2022/04/14 01:41:15;;;;;;;21.13;13.85;;;;;;;;;;5115787;28;20086;-63
2022/04/14 01:43:43;;;;;;;29.02;12.25;;;;;;;;;;5125701;28;20492;-63
2022/04/14 01:46:09;;;;;;;22.58;12.82;;;;;;;;;;5116963;28;20464;-63
2022/04/14 01:48:38;;;;;;;30.35;13.57;;;;;;;;;;5106370;28;20043;-63
2022/04/14 01:51:05;;;;;;;22.52;13.18;;;;;;;;;;5122704;28;20039;-64
2022/04/14 01:53:31;;;;;;;56.28;13.68;;;;;;;;;;5129301;28;20043;-63
2022/04/14 01:55:57;;;;;;;250.75;16.67;;;;;;;;;;5130430;28;20104;-63
2022/04/14 01:58:23;;;;;;;130.15;15.63;;;;;;;;;;5109124;28;20127;-63
2022/04/14 02:00:49;;;;;;;42.92;14.88;;;;;;;;;;5124906;28;20091;-64
2022/04/14 02:03:16;;;;;;;48.28;14.77;;;;;;;;;;5111807;28;20443;-63
2022/04/14 02:05:42;;;;;;;21.42;12.68;;;;;;;;;;5111787;28;20083;-63
2022/04/14 02:08:08;;;;;;;24.85;14.82;;;;;;;;;;5101664;27;20040;-63
2022/04/14 02:10:34;;;;;;;24.02;15.30;;;;;;;;;;5125845;27;20439;-64
2022/04/14 02:13:00;;;;;;;23.08;16.00;;;;;;;;;;5131192;27;20035;-64
2022/04/14 02:15:26;;;;;;;20.73;14.93;;;;;;;;;;5108194;28;20497;-63
2022/04/14 02:17:52;;;;;;;24.80;16.58;;;;;;;;;;5110279;27;20043;-63
2022/04/14 02:20:19;;;;;;;27.85;18.45;;;;;;;;;;5099625;27;20063;-63
2022/04/14 02:22:45;;;;;;;28.67;18.00;;;;;;;;;;5101503;27;20401;-64
2022/04/14 02:25:11;;;;;;;44.63;18.02;;;;;;;;;;5125253;27;20050;-63
2022/04/14 02:27:37;;;;;;;125.00;19.80;;;;;;;;;;5124662;27;20039;-63
2022/04/14 02:30:04;;;;;;;200.63;23.52;;;;;;;;;;5130653;27;20401;-63
2022/04/14 02:32:30;;;;;;;71.22;21.85;;;;;;;;;;5126140;27;20039;-63
2022/04/14 02:34:56;;;;;;;125.13;21.92;;;;;;;;;;5121334;27;20479;-63
2022/04/14 02:37:22;;;;;;;207.85;25.38;;;;;;;;;;5126462;27;20047;-63
2022/04/14 02:39:49;;;;;;;97.13;21.42;;;;;;;;;;5104259;27;20047;-63
2022/04/14 02:42:15;;;;;;;47.92;19.42;;;;;;;;;;5104970;27;20133;-63
2022/04/14 02:44:41;;;;;;;45.92;18.63;;;;;;;;;;5110209;27;20051;-63
2022/04/14 02:47:08;;;;;;;54.70;17.70;;;;;;;;;;5127186;27;20383;-64
2022/04/14 02:49:34;;;;;;;106.10;21.42;;;;;;;;;;5124823;27;20086;-63
2022/04/14 02:52:00;;;;;;;134.75;20.98;;;;;;;;;;5098962;27;20128;-63
2022/04/14 02:54:26;;;;;;;42.78;20.75;;;;;;;;;;5102948;27;20043;-63
2022/04/14 02:56:53;;;;;;;37.35;21.25;;;;;;;;;;5117805;27;20491;-63
2022/04/14 02:59:19;;;;;;;37.35;21.67;;;;;;;;;;5101023;27;20126;-63
2022/04/14 03:01:45;;;;;;;29.45;20.33;;;;;;;;;;5098074;27;20043;-63
2022/04/14 03:04:11;;;;;;;50.35;21.55;;;;;;;;;;5129128;27;20047;-63
2022/04/14 03:06:37;;;;;;;47.05;22.33;;;;;;;;;;5103953;27;20088;-63
2022/04/14 03:09:03;;;;;;;33.47;21.38;;;;;;;;;;5126740;27;20035;-63
2022/04/14 03:11:29;;;;;;;39.80;24.13;;;;;;;;;;5124531;27;20042;-64
2022/04/14 03:13:55;;;;;;;38.22;23.25;;;;;;;;;;5134287;27;20042;-63
2022/04/14 03:16:22;;;;;;;30.30;19.42;;;;;;;;;;5109365;27;20043;-64
2022/04/14 03:18:48;;;;;;;51.70;20.60;;;;;;;;;;5111728;27;20039;-63
2022/04/14 03:21:14;;;;;;;31.33;19.40;;;;;;;;;;5118682;27;20054;-64
2022/04/14 03:23:40;;;;;;;45.47;18.13;;;;;;;;;;5121760;27;20031;-64
2022/04/14 03:26:08;;;;;;;349.90;23.65;;;;;;;;;;5118939;27;20039;-64
2022/04/14 03:28:36;;;;;;;381.25;26.40;;;;;;;;;;5124560;27;20043;-63
2022/04/14 03:31:02;;;;;;;40.78;20.83;;;;;;;;;;5120132;27;20432;-63
2022/04/14 03:33:28;;;;;;;92.32;25.13;;;;;;;;;;5112480;27;20067;-63
2022/04/14 03:35:54;;;;;;;77.85;21.65;;;;;;;;;;5131282;27;20043;-63
2022/04/14 03:38:20;;;;;;;121.28;22.13;;;;;;;;;;5099263;28;20118;-63
2022/04/14 03:40:47;;;;;;;148.07;24.42;;;;;;;;;;5128603;27;20066;-63
2022/04/14 03:43:13;;;;;;;297.65;26.58;;;;;;;;;;5132115;27;20398;-63
2022/04/14 03:45:39;;;;;;;225.00;26.52;;;;;;;;;;5113995;27;20406;-63
2022/04/14 03:48:05;;;;;;;353.88;27.23;;;;;;;;;;5131580;27;20043;-63
2022/04/14 03:50:31;;;;;;;356.92;25.27;;;;;;;;;;5127597;27;20050;-63
2022/04/14 03:52:58;;;;;;;195.77;23.40;;;;;;;;;;5125256;27;20047;-64
2022/04/14 03:55:24;;;;;;;156.80;22.27;;;;;;;;;;5124304;27;20122;-63
2022/04/14 03:57:50;;;;;;;575.30;32.65;;;;;;;;;;5113265;27;20126;-64
2022/04/14 04:00:16;;;;;;;342.48;26.55;;;;;;;;;;5126390;27;20036;-63
2022/04/14 04:02:42;;;;;;;512.63;31.60;;;;;;;;;;5118421;27;20042;-64
2022/04/14 04:05:09;;;;;;;139.60;22.67;;;;;;;;;;5129176;27;20036;-64
2022/04/14 04:07:35;;;;;;;274.05;24.58;;;;;;;;;;5119834;27;20118;-64
2022/04/14 04:10:01;;;;;;;104.63;20.15;;;;;;;;;;5120925;27;20185;-64
2022/04/14 04:12:27;;;;;;;553.10;28.33;;;;;;;;;;5105226;27;20039;-64
2022/04/14 04:14:54;;;;;;;449.90;26.55;;;;;;;;;;5122342;27;20039;-63
2022/04/14 04:17:20;;;;;;;461.52;27.40;;;;;;;;;;5117951;27;20422;-63
2022/04/14 04:19:46;;;;;;;439.25;27.92;;;;;;;;;;5125029;27;20058;-63
2022/04/14 04:22:13;;;;;;;275.35;22.02;;;;;;;;;;5109507;27;20390;-63
2022/04/14 04:24:39;;;;;;;326.00;24.90;;;;;;;;;;5127212;27;20416;-63
2022/04/14 04:27:05;;;;;;;235.07;20.42;;;;;;;;;;5125268;27;20041;-63
2022/04/14 04:29:31;;;;;;;190.90;18.75;;;;;;;;;;5118214;27;20122;-63
2022/04/14 04:31:57;;;;;;;189.75;17.92;;;;;;;;;;5118667;27;20118;-63
2022/04/14 04:34:24;;;;;;;100.63;16.50;;;;;;;;;;5118777;27;20043;-63
2022/04/14 04:36:50;;;;;;;118.03;15.65;;;;;;;;;;5117528;27;20047;-64
2022/04/14 04:39:16;;;;;;;142.38;16.67;;;;;;;;;;5126281;27;20201;-63
2022/04/14 04:41:43;;;;;;;172.40;17.27;;;;;;;;;;5103891;27;20059;-64
2022/04/14 04:44:09;;;;;;;104.72;16.33;;;;;;;;;;5123894;27;20070;-63
2022/04/14 04:46:36;;;;;;;123.47;16.98;;;;;;;;;;5120861;27;20035;-63
2022/04/14 04:49:02;;;;;;;103.65;18.13;;;;;;;;;;5121686;27;20137;-63
2022/04/14 04:51:28;;;;;;;124.35;18.88;;;;;;;;;;5102944;27;20041;-63
2022/04/14 04:53:54;;;;;;;402.98;23.70;;;;;;;;;;5119637;27;20040;-63
2022/04/14 04:56:20;;;;;;;208.77;17.25;;;;;;;;;;5121253;27;20043;-63
2022/04/14 04:58:47;;;;;;;141.57;17.80;;;;;;;;;;5102831;28;20097;-64
2022/04/14 05:01:13;;;;;;;110.95;16.52;;;;;;;;;;5128374;27;20397;-63
2022/04/14 05:03:40;;;;;;;78.95;15.75;;;;;;;;;;5103670;28;20638;-64
2022/04/14 05:06:06;;;;;;;88.90;14.15;;;;;;;;;;5129298;27;20054;-64
2022/04/14 05:08:32;;;;;;;111.03;13.85;;;;;;;;;;5123698;27;20085;-64
2022/04/14 05:10:58;;;;;;;178.05;14.18;;;;;;;;;;5099894;28;20050;-64
2022/04/14 05:13:24;;;;;;;176.23;17.75;;;;;;;;;;5114291;28;20071;-64
2022/04/14 05:15:50;;;;;;;114.15;17.63;;;;;;;;;;5115328;28;20036;-64
2022/04/14 05:18:17;;;;;;;221.73;22.85;;;;;;;;;;5111503;28;20066;-64
2022/04/14 05:20:43;;;;;;;191.18;23.48;;;;;;;;;;5108690;28;20459;-64
2022/04/14 05:23:10;;;;;;;147.80;23.23;;;;;;;;;;5115999;28;20035;-64
2022/04/14 05:25:36;;;;;;;128.48;24.15;;;;;;;;;;5119250;28;20042;-64
2022/04/14 05:28:03;;;;;;;124.88;24.58;;;;;;;;;;5125791;28;20446;-64
2022/04/14 05:30:30;;;;;;;192.10;28.25;;;;;;;;;;5131814;28;20037;-64
2022/04/14 05:32:56;;;;;;;118.85;27.85;;;;;;;;;;5106922;28;20118;-64
2022/04/14 05:35:22;;;;;;;107.53;32.25;;;;;;;;;;5125134;28;20035;-64
2022/04/14 05:37:49;;;;;;;95.05;33.75;;;;;;;;;;5109793;28;20131;-64
2022/04/14 05:40:15;;;;;;;82.45;37.60;;;;;;;;;;5120525;28;20040;-64
2022/04/14 05:42:45;;;;;;;72.45;38.53;;;;;;;;;;5121940;27;20046;-65
2022/04/14 05:45:12;;;;;;;69.90;38.70;;;;;;;;;;5123864;27;20039;-65
2022/04/14 05:47:39;;;;;;;75.25;40.60;;;;;;;;;;5105310;27;20044;-65
2022/04/14 05:50:05;;;;;;;79.32;43.80;;;;;;;;;;5102737;27;20129;-65
2022/04/14 05:52:31;;;;;;;86.68;45.40;;;;;;;;;;5121069;27;20415;-64
2022/04/14 05:55:01;;;;;;;93.22;50.95;;;;;;;;;;5122969;27;20360;-64
2022/04/14 05:57:28;;;;;;;106.38;52.88;;;;;;;;;;5108762;27;20114;-65
2022/04/14 05:59:54;;;;;;;115.82;62.33;;;;;;;;;;5122613;27;20750;-64
2022/04/14 06:02:21;;;;;;;118.75;64.47;;;;;;;;;;5125085;27;20027;-64
2022/04/14 06:04:47;;;;;;;129.18;65.65;;;;;;;;;;5106858;27;20070;-64
2022/04/14 06:07:13;;;;;;;130.32;66.20;;;;;;;;;;5122986;27;20047;-64
2022/04/14 06:09:39;;;;;;;110.90;64.68;;;;;;;;;;5131500;27;20123;-65
2022/04/14 06:12:06;;;;;;;120.63;65.63;;;;;;;;;;5132376;27;20054;-65
2022/04/14 06:14:33;;;;;;;114.82;63.63;;;;;;;;;;5113918;27;20043;-65
2022/04/14 06:16:59;;;;;;;124.80;63.95;;;;;;;;;;5107956;28;20083;-65
2022/04/14 06:19:26;;;;;;;106.13;61.35;;;;;;;;;;5132269;27;20510;-65
2022/04/14 06:21:52;;;;;;;105.65;61.45;;;;;;;;;;5126476;27;20188;-66
2022/04/14 06:24:18;;;;;;;107.65;61.00;;;;;;;;;;5130331;27;20047;-65
2022/04/14 06:26:44;;;;;;;111.35;62.75;;;;;;;;;;5132989;27;20035;-65
2022/04/14 06:29:11;;;;;;;109.35;61.10;;;;;;;;;;5131627;27;20047;-65
2022/04/14 06:31:37;;;;;;;95.68;58.65;;;;;;;;;;5131041;27;20047;-64
2022/04/14 06:34:05;;;;;;;95.60;55.78;;;;;;;;;;5132998;27;20035;-65
2022/04/14 06:36:31;;;;;;;97.53;56.55;;;;;;;;;;5130555;27;20043;-65
2022/04/14 06:38:57;;;;;;;95.68;56.35;;;;;;;;;;5104288;27;20367;-65
2022/04/14 06:41:26;;;;;;;94.68;54.03;;;;;;;;;;5113030;27;20493;-65
2022/04/14 06:43:53;;;;;;;84.35;53.58;;;;;;;;;;5127328;27;20051;-65
2022/04/14 06:46:20;;;;;;;83.22;52.33;;;;;;;;;;5130549;27;20439;-65
2022/04/14 06:48:46;;;;;;;81.13;50.85;;;;;;;;;;5131241;27;20094;-65
2022/04/14 06:51:12;;;;;;;79.05;48.03;;;;;;;;;;5127965;27;20039;-63
2022/04/14 06:53:38;;;;;;;72.82;44.00;;;;;;;;;;5128001;27;20130;-63
2022/04/14 06:56:05;;;;;;;77.38;46.00;;;;;;;;;;5111892;27;20110;-63
2022/04/14 06:58:31;;;;;;;65.88;41.70;;;;;;;;;;5123590;27;20035;-64
2022/04/14 07:00:57;;;;;;;61.50;40.53;;;;;;;;;;5112753;27;20051;-64
2022/04/14 07:03:26;;;;;;;59.35;40.50;;;;;;;;;;5130136;27;20062;-64
2022/04/14 07:05:54;;;;;;;66.72;42.50;;;;;;;;;;5129042;27;20130;-64
2022/04/14 07:08:22;;;;;;;69.60;41.00;;;;;;;;;;5129921;27;20103;-64
2022/04/14 07:10:48;;;;;;;70.43;44.53;;;;;;;;;;5126818;27;20504;-64
2022/04/14 07:13:14;;;;;;;65.97;37.25;;;;;;;;;;5131732;27;20042;-64
2022/04/14 07:15:40;;;;;;;55.08;35.10;;;;;;;;;;5131393;27;20385;-64
2022/04/14 07:18:08;;;;;;;55.50;35.28;;;;;;;;;;5125869;27;20613;-64
2022/04/14 07:20:34;;;;;;;47.28;32.95;;;;;;;;;;5128858;27;20039;-64
2022/04/14 07:23:02;;;;;;;53.80;35.75;;;;;;;;;;5109568;27;20047;-64
2022/04/14 07:25:31;;;;;;;52.55;33.80;;;;;;;;;;5126310;27;20158;-64
2022/04/14 07:27:59;;;;;;;47.88;30.77;;;;;;;;;;5127800;27;20058;-65
2022/04/14 07:30:26;;;;;;;52.92;32.78;;;;;;;;;;5106876;27;20115;-64
2022/04/14 07:32:53;;;;;;;49.35;32.15;;;;;;;;;;5127428;27;20611;-64
2022/04/14 07:35:22;;;;;;;52.05;32.05;;;;;;;;;;5126455;27;20043;-64
2022/04/14 07:37:49;;;;;;;55.13;34.60;;;;;;;;;;5129963;27;20122;-65
2022/04/14 07:40:15;;;;;;;51.13;33.15;;;;;;;;;;5108470;27;20054;-64
2022/04/14 07:42:42;;;;;;;43.58;29.70;;;;;;;;;;5123644;27;20157;-64
2022/04/14 07:45:09;;;;;;;47.28;28.45;;;;;;;;;;5127020;27;20091;-64
2022/04/14 07:47:35;;;;;;;48.85;30.90;;;;;;;;;;5129613;27;20062;-64
2022/04/14 07:50:02;;;;;;;46.72;29.50;;;;;;;;;;5126764;27;20042;-64
2022/04/14 07:52:28;;;;;;;44.88;28.98;;;;;;;;;;5130074;27;20046;-64
2022/04/14 07:54:55;;;;;;;50.53;30.25;;;;;;;;;;5128531;27;20122;-64
2022/04/14 07:57:21;;;;;;;43.78;29.40;;;;;;;;;;5127974;27;20039;-64
2022/04/14 07:59:47;;;;;;;46.65;30.30;;;;;;;;;;5129015;27;20046;-64
2022/04/14 08:02:13;;;;;;;41.30;29.23;;;;;;;;;;5128195;27;20360;-65
2022/04/14 08:04:40;;;;;;;35.97;27.17;;;;;;;;;;5127171;27;20529;-65
2022/04/14 08:07:06;;;;;;;43.83;28.15;;;;;;;;;;5127749;27;20039;-64
2022/04/14 08:09:32;;;;;;;32.85;24.23;;;;;;;;;;5109866;27;20114;-65
2022/04/14 08:11:58;;;;;;;39.13;26.63;;;;;;;;;;5130605;27;20035;-65
2022/04/14 08:14:25;;;;;;;37.47;25.58;;;;;;;;;;5129175;27;20052;-65
2022/04/14 08:16:51;;;;;;;28.63;20.80;;;;;;;;;;5125780;27;20118;-65
2022/04/14 08:19:17;;;;;;;38.80;25.55;;;;;;;;;;5129948;27;20157;-65
2022/04/14 08:21:45;;;;;;;36.90;23.95;;;;;;;;;;5109973;27;20031;-65
2022/04/14 08:24:12;;;;;;;25.88;19.83;;;;;;;;;;5129235;27;20070;-65
2022/04/14 08:26:38;;;;;;;32.47;20.10;;;;;;;;;;5129054;27;20035;-65
2022/04/14 08:29:04;;;;;;;32.47;22.25;;;;;;;;;;5126217;27;20421;-65
2022/04/14 08:31:30;;;;;;;34.00;22.67;;;;;;;;;;5111589;27;20047;-65
2022/04/14 08:33:56;;;;;;;28.88;21.00;;;;;;;;;;5129181;27;20127;-65
2022/04/14 08:36:23;;;;;;;30.75;20.63;;;;;;;;;;5128149;27;20424;-65
2022/04/14 08:38:50;;;;;;;32.00;19.90;;;;;;;;;;5129124;27;20059;-65
2022/04/14 08:41:19;;;;;;;27.85;20.63;;;;;;;;;;5107608;27;20043;-65
2022/04/14 08:43:52;;;;;;;29.77;17.40;;;;;;;;;;5127055;27;20057;-65
2022/04/14 08:46:19;;;;;;;25.73;16.90;;;;;;;;;;5128761;27;20035;-65
2022/04/14 08:48:50;;;;;;;24.45;14.82;;;;;;;;;;5124622;27;20035;-65
2022/04/14 08:51:17;;;;;;;19.40;12.80;;;;;;;;;;5129134;27;20031;-65
2022/04/14 08:53:43;;;;;;;23.45;14.60;;;;;;;;;;5126532;27;20160;-65
2022/04/14 08:56:10;;;;;;;23.67;13.38;;;;;;;;;;5103643;27;20039;-65
2022/04/14 08:58:37;;;;;;;23.50;14.65;;;;;;;;;;5129583;27;20518;-65
2022/04/14 09:01:04;;;;;;;23.25;14.05;;;;;;;;;;5110254;27;20047;-65
2022/04/14 09:03:32;;;;;;;23.35;14.05;;;;;;;;;;5109132;28;20501;-63
2022/04/14 09:05:58;;;;;;;16.05;9.38;;;;;;;;;;5127210;27;20060;-65
2022/04/14 09:08:25;;;;;;;17.52;9.60;;;;;;;;;;5111265;28;20676;-67
2022/04/14 09:10:52;;;;;;;15.38;9.05;;;;;;;;;;5128758;27;20043;-65
2022/04/14 09:13:18;;;;;;;18.60;8.63;;;;;;;;;;5111096;28;20084;-65
2022/04/14 09:15:44;;;;;;;14.68;7.40;;;;;;;;;;5118885;28;20039;-64
2022/04/14 09:18:11;;;;;;;15.35;7.28;;;;;;;;;;5122994;27;20066;-65
2022/04/14 09:20:38;;;;;;;8.05;4.78;;;;;;;;;;5133660;27;20118;-65
2022/04/14 09:23:10;;;;;;;11.02;5.32;;;;;;;;;;5133693;27;20505;-65
2022/04/14 09:25:37;;;;;;;9.32;5.05;;;;;;;;;;5131431;27;20065;-65
2022/04/14 09:28:10;;;;;;;10.55;5.05;;;;;;;;;;5097201;27;20035;-65
2022/04/14 09:30:36;;;;;;;8.67;5.30;;;;;;;;;;5129051;27;20036;-65
2022/04/14 09:33:02;;;;;;;11.48;4.82;;;;;;;;;;5112639;27;20061;-65
2022/04/14 09:35:31;;;;;;;13.25;5.75;;;;;;;;;;5132841;27;20522;-65
2022/04/14 09:38:02;;;;;;;11.40;5.45;;;;;;;;;;5103787;27;20142;-65
2022/04/14 09:40:30;;;;;;;11.15;5.50;;;;;;;;;;5133210;27;20118;-65
2022/04/14 09:42:56;;;;;;;8.98;4.50;;;;;;;;;;5133804;27;20043;-65
2022/04/14 09:45:23;;;;;;;11.00;4.97;;;;;;;;;;5109800;27;20478;-65
2022/04/14 09:47:50;;;;;;;10.45;5.13;;;;;;;;;;5128282;27;20079;-65
2022/04/14 09:50:27;;;;;;;10.00;4.88;;;;;;;;;;5132471;27;20043;-65
2022/04/14 09:53:12;;;;;;;9.65;4.70;;;;;;;;;;5127230;27;20031;-65
2022/04/14 09:55:41;;;;;;;9.40;5.00;;;;;;;;;;5105368;27;20074;-65
2022/04/14 09:58:10;;;;;;;12.65;6.93;;;;;;;;;;5125679;27;21364;-65
2022/04/14 10:00:44;;;;;;;13.50;7.22;;;;;;;;;;5131175;27;20043;-65
2022/04/14 10:03:19;;;;;;;12.45;7.72;;;;;;;;;;5132787;27;20038;-65
2022/04/14 10:05:46;;;;;;;12.50;7.22;;;;;;;;;;5105070;27;20043;-65
2022/04/14 10:08:13;;;;;;;12.27;6.22;;;;;;;;;;5126374;27;20070;-65
2022/04/14 10:10:40;;;;;;;12.82;7.80;;;;;;;;;;5133200;27;20039;-65
2022/04/14 10:13:08;;;;;;;11.88;6.38;;;;;;;;;;5128618;27;20049;-65
2022/04/14 10:15:35;;;;;;;16.15;7.90;;;;;;;;;;5131503;27;20119;-65
2022/04/14 10:18:09;;;;;;;9.95;5.47;;;;;;;;;;5127967;27;20118;-65
2022/04/14 10:20:36;;;;;;;9.65;5.72;;;;;;;;;;5129691;27;20050;-65
2022/04/14 10:23:02;;;;;;;12.95;5.90;;;;;;;;;;5133503;27;20051;-65
2022/04/14 10:25:29;;;;;;;11.98;5.32;;;;;;;;;;5129118;27;20046;-65
2022/04/14 10:27:59;;;;;;;10.30;5.00;;;;;;;;;;5131248;27;20059;-66
2022/04/14 10:30:25;;;;;;;11.10;5.22;;;;;;;;;;5114446;27;20125;-65
2022/04/14 10:32:55;;;;;;;9.52;4.80;;;;;;;;;;5127898;27;20035;-65
2022/04/14 10:35:21;;;;;;;11.70;4.75;;;;;;;;;;5112560;27;20122;-65
2022/04/14 10:37:52;;;;;;;10.90;5.45;;;;;;;;;;5129836;27;20509;-65
2022/04/14 10:40:18;;;;;;;12.10;6.32;;;;;;;;;;5124312;27;20639;-65
2022/04/14 10:42:49;;;;;;;10.10;5.30;;;;;;;;;;5108263;27;20089;-66
2022/04/14 10:45:17;;;;;;;10.55;6.35;;;;;;;;;;5126631;27;20156;-65
2022/04/14 10:47:43;;;;;;;11.52;5.82;;;;;;;;;;5104117;28;20047;-65
2022/04/14 10:50:20;;;;;;;12.70;6.68;;;;;;;;;;5108703;27;20500;-65
2022/04/14 10:53:06;;;;;;;11.02;7.10;;;;;;;;;;5110905;27;20054;-65
2022/04/14 10:55:35;;;;;;;8.05;5.50;;;;;;;;;;5125850;27;20118;-65
2022/04/14 10:58:01;;;;;;;10.32;6.82;;;;;;;;;;5113027;27;20117;-65
2022/04/14 11:00:31;;;;;;;12.13;6.47;;;;;;;;;;5132504;27;20043;-65
2022/04/14 11:03:07;;;;;;;7.85;4.43;;;;;;;;;;5121090;27;20043;-65
2022/04/14 11:05:42;;;;;;;8.60;4.95;;;;;;;;;;5126345;27;20043;-65
2022/04/14 11:08:22;;;;;;;14.55;5.70;;;;;;;;;;5125180;27;20085;-65
2022/04/14 11:10:53;;;;;;;11.18;4.72;;;;;;;;;;5128482;27;20062;-65
2022/04/14 11:13:19;;;;;;;7.97;4.03;;;;;;;;;;5131624;27;20406;-65
2022/04/14 11:15:46;;;;;;;9.20;4.00;;;;;;;;;;5105964;27;20079;-65
2022/04/14 11:18:12;;;;;;;8.45;4.65;;;;;;;;;;5129500;27;20042;-65
2022/04/14 11:20:44;;;;;;;9.65;4.50;;;;;;;;;;5108491;27;20367;-65
2022/04/14 11:23:21;;;;;;;9.85;4.93;;;;;;;;;;5110097;27;20043;-65
2022/04/14 11:25:48;;;;;;;9.20;6.03;;;;;;;;;;5128328;27;20393;-65
2022/04/14 11:28:19;;;;;;;12.23;5.53;;;;;;;;;;5114028;28;20088;-65
2022/04/14 11:30:46;;;;;;;13.40;5.70;;;;;;;;;;5113265;28;20055;-65
2022/04/14 11:33:14;;;;;;;10.45;5.40;;;;;;;;;;5116298;27;20352;-65
2022/04/14 11:35:45;;;;;;;11.82;6.35;;;;;;;;;;5114106;28;20861;-65
2022/04/14 11:38:31;;;;;;;13.55;5.63;;;;;;;;;;5081467;27;20398;-65
2022/04/14 11:40:57;;;;;;;12.30;6.20;;;;;;;;;;5115715;27;20505;-65
2022/04/14 11:43:24;;;;;;;13.02;6.18;;;;;;;;;;5114310;27;20486;-65
2022/04/14 11:45:51;;;;;;;8.02;5.90;;;;;;;;;;5133612;27;20049;-65
2022/04/14 11:48:17;;;;;;;12.85;6.88;;;;;;;;;;5134032;27;20505;-65
2022/04/14 11:50:43;;;;;;;12.07;6.22;;;;;;;;;;5116297;27;20371;-65
2022/04/14 11:53:09;;;;;;;10.40;6.15;;;;;;;;;;5131588;27;20458;-65
2022/04/14 11:55:35;;;;;;;10.48;6.30;;;;;;;;;;5134332;27;20049;-65
2022/04/14 11:58:06;;;;;;;11.45;6.80;;;;;;;;;;5133707;27;20042;-65
2022/04/14 12:00:41;;;;;;;8.57;5.68;;;;;;;;;;5115856;27;20059;-65
2022/04/14 12:03:08;;;;;;;12.57;7.00;;;;;;;;;;5115276;27;20394;-65
2022/04/14 12:05:34;;;;;;;11.57;6.50;;;;;;;;;;5131860;27;20050;-65
2022/04/14 12:08:06;;;;;;;11.70;6.38;;;;;;;;;;5132326;27;20047;-65
2022/04/14 12:10:32;;;;;;;14.80;6.57;;;;;;;;;;5133893;27;20051;-65
2022/04/14 12:13:05;;;;;;;11.15;6.68;;;;;;;;;;5131319;27;20068;-65
2022/04/14 12:15:31;;;;;;;9.77;5.72;;;;;;;;;;5132249;27;20054;-65
2022/04/14 12:18:06;;;;;;;10.48;5.55;;;;;;;;;;5134070;27;20039;-65
2022/04/14 12:20:40;;;;;;;10.05;5.70;;;;;;;;;;5132722;27;20126;-65
2022/04/14 12:23:08;;;;;;;13.18;6.75;;;;;;;;;;5113397;27;20054;-65
2022/04/14 12:25:35;;;;;;;9.55;5.38;;;;;;;;;;5113697;27;20039;-65
2022/04/14 12:28:01;;;;;;;10.70;6.07;;;;;;;;;;5133022;27;20043;-65
2022/04/14 12:30:29;;;;;;;12.48;5.72;;;;;;;;;;5115272;27;20411;-65
2022/04/14 12:33:00;;;;;;;14.68;6.40;;;;;;;;;;5115117;27;20050;-65
2022/04/14 12:35:31;;;;;;;9.95;4.63;;;;;;;;;;5123934;27;20036;-66
2022/04/14 12:38:10;;;;;;;12.32;5.18;;;;;;;;;;5114001;28;20411;-65
2022/04/14 12:40:36;;;;;;;10.80;4.18;;;;;;;;;;5112274;28;20043;-65
2022/04/14 12:43:06;;;;;;;11.05;4.63;;;;;;;;;;5115290;27;20126;-65
2022/04/14 12:45:39;;;;;;;12.50;5.20;;;;;;;;;;5131581;27;20351;-65
2022/04/14 12:48:05;;;;;;;;;;;;;;;;;;5133008;27;20137;-65
2022/04/14 12:50:31;;;;;;;11.30;4.97;;;;;;;;;;5132970;27;20289;-65
2022/04/14 12:52:58;;;;;;;10.55;5.00;;;;;;;;;;5132610;27;20122;-65
2022/04/14 12:55:26;;;;;;;11.82;4.97;;;;;;;;;;5130503;27;20035;-65
2022/04/14 12:58:08;;;;;;;9.30;4.65;;;;;;;;;;5114595;27;20090;-65
2022/04/14 13:00:35;;;;;;;11.70;4.90;;;;;;;;;;5131116;27;20402;-65
2022/04/14 13:03:03;;;;;;;14.70;6.53;;;;;;;;;;5132342;27;20039;-65
2022/04/14 13:05:30;;;;;;;10.10;5.43;;;;;;;;;;5107969;28;20047;-65
2022/04/14 13:07:57;;;;;;;13.90;6.07;;;;;;;;;;5112665;28;20047;-65
2022/04/14 13:10:29;;;;;;;13.80;6.65;;;;;;;;;;5117253;28;20466;-65
2022/04/14 13:12:55;;;;;;;9.05;5.50;;;;;;;;;;5113107;28;20428;-65
2022/04/14 13:15:22;;;;;;;9.38;5.70;;;;;;;;;;5131140;28;20066;-65
2022/04/14 13:17:49;;;;;;;8.45;5.28;;;;;;;;;;5093395;28;20040;-65
2022/04/14 13:20:17;;;;;;;10.63;5.32;;;;;;;;;;5093836;28;20050;-65
2022/04/14 13:22:44;;;;;;;11.85;6.82;;;;;;;;;;5093218;28;20044;-65
2022/04/14 13:25:11;;;;;;;12.27;7.43;;;;;;;;;;5114402;28;20047;-65
2022/04/14 13:27:37;;;;;;;15.13;7.22;;;;;;;;;;5131147;28;20058;-65
2022/04/14 13:30:04;;;;;;;16.25;8.15;;;;;;;;;;5132296;28;20156;-65
2022/04/14 13:32:31;;;;;;;12.05;7.60;;;;;;;;;;5132645;28;20039;-65
2022/04/14 13:34:57;;;;;;;17.98;8.45;;;;;;;;;;5133095;28;20039;-65
2022/04/14 13:37:23;;;;;;;17.58;7.60;;;;;;;;;;5107773;28;20093;-65
2022/04/14 13:39:49;;;;;;;16.13;7.28;;;;;;;;;;5110469;28;20054;-65
2022/04/14 13:42:15;;;;;;;15.65;7.97;;;;;;;;;;5112407;28;20040;-65
2022/04/14 13:44:42;;;;;;;15.60;7.93;;;;;;;;;;5097624;28;20052;-65
2022/04/14 13:47:08;;;;;;;15.05;7.93;;;;;;;;;;5092838;28;20101;-65
2022/04/14 13:49:35;;;;;;;14.95;7.57;;;;;;;;;;5090718;28;20513;-65
2022/04/14 13:52:01;;;;;;;18.48;7.95;;;;;;;;;;5091291;28;20459;-65
2022/04/14 13:54:28;;;;;;;18.02;7.95;;;;;;;;;;5090427;28;20054;-65
2022/04/14 13:56:55;;;;;;;17.42;7.47;;;;;;;;;;5090291;28;20450;-65
2022/04/14 13:59:21;;;;;;;17.23;6.30;;;;;;;;;;5092132;28;20044;-65
2022/04/14 14:01:47;;;;;;;12.02;5.78;;;;;;;;;;5092801;28;20424;-65
2022/04/14 14:04:13;;;;;;;8.20;5.10;;;;;;;;;;5093220;28;20555;-65
2022/04/14 14:06:40;;;;;;;9.95;4.38;;;;;;;;;;5093529;28;20404;-65
2022/04/14 14:09:06;;;;;;;11.68;4.95;;;;;;;;;;5095387;28;20130;-65
2022/04/14 14:11:32;;;;;;;10.38;4.82;;;;;;;;;;5095525;28;20040;-65
2022/04/14 14:13:59;;;;;;;11.52;4.72;;;;;;;;;;5095612;28;20360;-65
2022/04/14 14:16:25;;;;;;;8.00;3.50;;;;;;;;;;5102814;28;20057;-65
2022/04/14 14:18:51;;;;;;;9.18;3.58;;;;;;;;;;5111851;28;20042;-65
2022/04/14 14:21:18;;;;;;;8.07;2.70;;;;;;;;;;5115562;28;20155;-65